Laurel — ZCOV6 — position and weather

sailwx.info

Track history (hours):
 
Tides and Currents Weather Stations Pressure Air Temp Water Temp Dewpoint Dewpoint Depression Visibility Wind Speed Wind Dir Waves Ship Positions

Laurel

Last reported at 2015-May-27 12:11 UTC. Time now 2015-May-29 18:28 UTC.
Position N 39°29' E 002°28'.

Length 73 m; draft 3.7 m.

Type: Pleasure craft. MMSI: 319914000.

Date/timePositionNaut miles runAvg speedWind from/ knotsBaromVisibWave heightAir tempDewpointWater temp
2015-May-27 12:11N 39°29' E 002°28'0 0.2
2015-May-27 10:05N 39°29' E 002°28'0 0.0
2015-May-27 05:29N 39°29' E 002°28'0 0.0
2015-May-27 04:33N 39°29' E 002°28'1313.1
2015-May-27 03:33N 39°18' E 002°18'1413.5
2015-May-27 02:33N 39°08' E 002°07'1313.0
2015-May-27 01:32N 38°57' E 001°57'8612.3
2015-May-26 18:32N 38°00' E 000°35'3812.1
2015-May-26 15:25N 37°37' W 000°03'1512.1
2015-May-26 14:10N 37°28' W 000°18'812.5
2015-May-26 13:33N 37°24' W 000°26'16 8.2
2015-May-26 11:33N 37°14' W 000°43'1512.1
2015-May-26 10:18N 37°05' W 000°58'37810.4
2015-May-24 22:06N 36°10' W 008°43'814.9
2015-May-24 21:33N 36°11' W 008°53'1514.7
2015-May-24 20:33N 36°13' W 009°11'70414.3
2015-May-22 19:19N 36°44' W 023°45'1114.5
2015-May-22 18:33N 36°44' W 023°59'1514.7
2015-May-22 17:33N 36°43' W 024°17'1514.5
2015-May-22 16:33N 36°42' W 024°35'1514.7
2015-May-22 15:34N 36°42' W 024°54'1514.9
2015-May-22 14:33N 36°41' W 025°12'1514.8
2015-May-22 13:33N 36°40' W 025°31'1414.4
2015-May-22 12:33N 36°40' W 025°49'1514.8
2015-May-22 11:33N 36°39' W 026°07'  
Track history (hours):
 
Tides and Currents Weather Stations Pressure Air Temp Water Temp Dewpoint Dewpoint Depression Visibility Wind Speed Wind Dir Waves Ship Positions

Laurel

Last reported at 2015-May-27 12:11 UTC. Time now 2015-May-29 18:28 UTC.
Position N 39°29' E 002°28'.

Length 73 m; draft 3.7 m.

Type: Pleasure craft. MMSI: 319914000.

Date/timePositionNaut miles runAvg speedWind from/ knotsBaromVisibWave heightAir tempDewpointWater temp
2015-May-27 12:11N 39°29' E 002°28'0 0.2
2015-May-27 10:05N 39°29' E 002°28'0 0.0
2015-May-27 05:29N 39°29' E 002°28'0 0.0
2015-May-27 04:33N 39°29' E 002°28'1313.1
2015-May-27 03:33N 39°18' E 002°18'1413.5
2015-May-27 02:33N 39°08' E 002°07'1313.0
2015-May-27 01:32N 38°57' E 001°57'8612.3
2015-May-26 18:32N 38°00' E 000°35'3812.1
2015-May-26 15:25N 37°37' W 000°03'1512.1
2015-May-26 14:10N 37°28' W 000°18'812.5
2015-May-26 13:33N 37°24' W 000°26'16 8.2
2015-May-26 11:33N 37°14' W 000°43'1512.1
2015-May-26 10:18N 37°05' W 000°58'37810.4
2015-May-24 22:06N 36°10' W 008°43'814.9
2015-May-24 21:33N 36°11' W 008°53'1514.7
2015-May-24 20:33N 36°13' W 009°11'70414.3
2015-May-22 19:19N 36°44' W 023°45'1114.5
2015-May-22 18:33N 36°44' W 023°59'1514.7
2015-May-22 17:33N 36°43' W 024°17'1514.5
2015-May-22 16:33N 36°42' W 024°35'1514.7
2015-May-22 15:34N 36°42' W 024°54'1514.9
2015-May-22 14:33N 36°41' W 025°12'1514.8
2015-May-22 13:33N 36°40' W 025°31'1414.4
2015-May-22 12:33N 36°40' W 025°49'1514.8
2015-May-22 11:33N 36°39' W 026°07'  

Dump ship's entire track history